createdAt,value
2018-09-26T00:01:52.980Z,5.77
2018-09-26T00:04:26.800Z,5.10
2018-09-26T00:06:54.407Z,4.70
2018-09-26T00:09:21.737Z,4.50
2018-09-26T00:11:49.072Z,5.87
2018-09-26T00:14:16.395Z,4.43
2018-09-26T00:16:43.719Z,4.73
2018-09-26T00:19:11.039Z,5.10
2018-09-26T00:21:38.393Z,4.53
2018-09-26T00:24:05.899Z,6.53
2018-09-26T00:26:33.211Z,4.40
2018-09-26T00:29:00.515Z,4.20
2018-09-26T00:31:27.839Z,5.13
2018-09-26T00:33:55.192Z,4.40
2018-09-26T00:36:22.517Z,5.00
2018-09-26T00:38:50.010Z,4.83
2018-09-26T00:41:17.327Z,4.13
2018-09-26T00:43:44.661Z,4.57
2018-09-26T00:46:12.172Z,4.40
2018-09-26T00:48:39.736Z,5.73
2018-09-26T00:51:07.195Z,4.80
2018-09-26T00:53:34.856Z,4.30
2018-09-26T00:56:02.511Z,4.13
2018-09-26T00:58:29.843Z,6.60
2018-09-26T01:00:57.207Z,4.90
2018-09-26T01:03:24.537Z,5.83
2018-09-26T01:05:51.871Z,5.03
2018-09-26T01:08:19.227Z,4.77
2018-09-26T01:10:46.663Z,4.37
2018-09-26T01:13:14.007Z,7.77
2018-09-26T01:15:41.966Z,4.60
2018-09-26T01:18:09.307Z,5.40
2018-09-26T01:20:38.535Z,5.67
2018-09-26T01:23:05.843Z,5.67
2018-09-26T01:25:33.167Z,5.67
2018-09-26T01:28:00.552Z,4.67
2018-09-26T01:30:28.139Z,6.47
2018-09-26T01:32:55.451Z,5.33
2018-09-26T01:35:22.761Z,6.23
2018-09-26T01:37:50.204Z,5.23
2018-09-26T01:40:17.514Z,6.10
2018-09-26T01:42:44.797Z,5.37
2018-09-26T01:45:12.115Z,5.33
2018-09-26T01:47:39.419Z,5.20
2018-09-26T01:50:06.761Z,5.30
2018-09-26T01:52:34.078Z,4.87
2018-09-26T01:55:01.375Z,5.07
2018-09-26T01:57:28.684Z,7.63
2018-09-26T01:59:56.003Z,5.63
2018-09-26T02:02:23.314Z,5.63
2018-09-26T02:04:50.651Z,5.20
2018-09-26T02:07:17.967Z,4.83
2018-09-26T02:09:45.286Z,4.63
2018-09-26T02:12:12.583Z,5.20
2018-09-26T02:14:39.944Z,4.93
2018-09-26T02:17:07.286Z,6.20
2018-09-26T02:19:34.591Z,4.97
2018-09-26T02:22:02.172Z,5.00
2018-09-26T02:24:29.715Z,5.60
2018-09-26T02:26:57.022Z,6.47
2018-09-26T02:29:24.545Z,5.57
2018-09-26T02:31:51.847Z,5.40
2018-09-26T02:34:19.149Z,5.70
2018-09-26T02:36:46.463Z,5.77
2018-09-26T02:39:13.779Z,5.63
2018-09-26T02:41:41.084Z,5.67
2018-09-26T02:44:08.416Z,5.53
2018-09-26T02:46:35.731Z,5.70
2018-09-26T02:49:04.512Z,5.30
2018-09-26T02:51:32.683Z,6.10
2018-09-26T02:53:59.992Z,5.40
2018-09-26T02:56:27.283Z,5.60
2018-09-26T02:58:54.604Z,8.00
2018-09-26T03:01:22.204Z,6.53
2018-09-26T03:03:49.507Z,5.30
2018-09-26T03:06:17.011Z,5.37
2018-09-26T03:08:44.569Z,5.83
2018-09-26T03:11:11.897Z,6.17
2018-09-26T03:13:39.175Z,6.70
2018-09-26T03:16:06.531Z,5.83
2018-09-26T03:18:33.820Z,5.00
2018-09-26T03:21:01.135Z,5.03
2018-09-26T03:23:28.480Z,5.27
2018-09-26T03:25:55.815Z,5.83
2018-09-26T03:28:23.175Z,5.70
2018-09-26T03:30:50.655Z,6.13
2018-09-26T03:33:17.946Z,5.23
2018-09-26T03:35:45.301Z,6.67
2018-09-26T03:38:12.599Z,5.50
2018-09-26T03:40:39.884Z,5.33
2018-09-26T03:43:07.423Z,5.33
2018-09-26T03:45:34.722Z,6.63
2018-09-26T03:48:02.023Z,5.00
2018-09-26T03:50:29.336Z,5.70
2018-09-26T03:52:56.670Z,5.50
2018-09-26T03:55:23.980Z,5.50
2018-09-26T03:57:51.462Z,5.17
2018-09-26T04:00:18.811Z,5.50
2018-09-26T04:02:46.127Z,9.63
2018-09-26T04:05:13.409Z,5.70
2018-09-26T04:07:40.964Z,5.00
2018-09-26T04:10:08.831Z,5.83
2018-09-26T04:12:36.318Z,5.87
2018-09-26T04:15:03.791Z,5.77
2018-09-26T04:17:31.075Z,6.17
2018-09-26T04:19:58.416Z,7.50
2018-09-26T04:22:25.918Z,6.73
2018-09-26T04:24:53.224Z,5.43
2018-09-26T04:27:20.635Z,5.70
2018-09-26T04:29:47.987Z,6.60
2018-09-26T04:32:15.261Z,6.10
2018-09-26T04:34:42.591Z,5.60
2018-09-26T04:37:09.903Z,5.53
2018-09-26T04:39:37.203Z,6.87
2018-09-26T04:42:04.757Z,4.97
2018-09-26T04:44:32.048Z,4.93
2018-09-26T04:46:59.565Z,5.53
2018-09-26T04:52:01.187Z,5.33
2018-09-26T04:54:28.681Z,4.80
2018-09-26T04:56:56.003Z,5.63
2018-09-26T04:59:23.312Z,5.37
2018-09-26T05:01:50.863Z,5.13
2018-09-26T05:04:18.163Z,5.83
2018-09-26T05:06:45.449Z,6.40
2018-09-26T05:09:12.780Z,5.17
2018-09-26T05:11:40.111Z,8.23
2018-09-26T05:14:07.431Z,7.07
2018-09-26T05:16:34.775Z,5.70
2018-09-26T05:19:02.252Z,4.93
2018-09-26T05:21:29.701Z,5.10
2018-09-26T05:23:57.009Z,5.70
2018-09-26T05:26:24.327Z,5.00
2018-09-26T05:28:51.597Z,4.70
2018-09-26T05:31:19.159Z,5.80
2018-09-26T05:33:46.451Z,6.00
2018-09-26T05:36:13.751Z,4.53
2018-09-26T05:38:41.087Z,5.33
2018-09-26T05:41:08.397Z,5.03
2018-09-26T05:43:35.690Z,4.47
2018-09-26T05:46:03.236Z,8.07
2018-09-26T05:48:30.536Z,4.87
2018-09-26T05:50:57.875Z,4.57
2018-09-26T05:53:25.633Z,5.07
2018-09-26T05:55:52.938Z,4.47
2018-09-26T05:58:20.234Z,5.77
2018-09-26T06:00:47.557Z,4.67
2018-09-26T06:03:14.879Z,4.87
2018-09-26T06:05:42.228Z,5.77
2018-09-26T06:08:09.509Z,4.70
2018-09-26T06:10:36.829Z,6.30
2018-09-26T06:13:04.177Z,7.17
2018-09-26T06:15:31.481Z,4.77
2018-09-26T06:17:59.055Z,4.90
2018-09-26T06:20:26.355Z,5.83
2018-09-26T06:22:53.671Z,5.00
2018-09-26T06:25:21.038Z,4.63
2018-09-26T06:27:48.332Z,6.27
2018-09-26T06:30:15.632Z,5.23
2018-09-26T06:32:42.972Z,4.60
2018-09-26T06:35:10.292Z,6.23
2018-09-26T06:37:37.571Z,5.27
2018-09-26T06:40:05.287Z,6.73
2018-09-26T06:42:32.609Z,7.43
2018-09-26T06:44:59.978Z,5.67
2018-09-26T06:47:27.364Z,5.60
2018-09-26T06:49:54.660Z,5.73
2018-09-26T06:52:21.956Z,7.00
2018-09-26T06:54:49.308Z,5.20
2018-09-26T06:57:16.618Z,5.23
2018-09-26T06:59:43.933Z,5.77
2018-09-26T07:02:11.292Z,5.73
2018-09-26T07:04:38.579Z,7.87
2018-09-26T07:07:06.136Z,5.43
2018-09-26T07:12:07.553Z,5.10
2018-09-26T07:14:34.813Z,7.30
2018-09-26T07:17:02.161Z,6.87
2018-09-26T07:19:29.538Z,6.00
2018-09-26T07:21:56.807Z,4.90
2018-09-26T07:24:24.128Z,6.13
2018-09-26T07:26:51.479Z,5.23
2018-09-26T07:29:18.851Z,5.63
2018-09-26T07:31:46.197Z,5.10
2018-09-26T07:34:13.491Z,5.23
2018-09-26T07:36:40.859Z,6.40
2018-09-26T07:39:09.867Z,5.10
2018-09-26T07:41:37.202Z,4.77
2018-09-26T07:44:04.492Z,5.40
2018-09-26T07:46:32.313Z,5.53
2018-09-26T07:48:59.627Z,8.00
2018-09-26T07:51:26.921Z,5.40
2018-09-26T07:53:54.257Z,7.17
2018-09-26T07:56:21.536Z,5.93
2018-09-26T07:58:48.820Z,5.90
2018-09-26T08:01:16.175Z,7.13
2018-09-26T08:03:43.471Z,4.70
2018-09-26T08:06:10.808Z,7.70
2018-09-26T08:08:38.739Z,4.70
2018-09-26T08:11:06.060Z,7.57
2018-09-26T08:13:33.340Z,5.90
2018-09-26T08:16:00.618Z,8.17
2018-09-26T08:18:27.914Z,5.37
2018-09-26T08:20:55.266Z,5.17
2018-09-26T08:23:22.596Z,4.90
2018-09-26T08:25:49.910Z,5.60
2018-09-26T08:28:17.230Z,4.90
2018-09-26T08:30:44.548Z,5.23
2018-09-26T08:33:11.814Z,7.57
2018-09-26T08:35:39.079Z,4.57
2018-09-26T08:38:06.398Z,8.47
2018-09-26T08:40:33.705Z,4.77
2018-09-26T08:43:00.992Z,6.60
2018-09-26T08:45:28.299Z,7.17
2018-09-26T08:47:55.597Z,6.07
2018-09-26T08:50:22.898Z,5.17
2018-09-26T08:52:50.243Z,4.63
2018-09-26T08:55:17.611Z,7.77
2018-09-26T08:57:44.966Z,4.53
2018-09-26T09:00:12.280Z,5.83
2018-09-26T09:02:39.575Z,4.37
2018-09-26T09:05:06.888Z,6.30
2018-09-26T09:07:34.487Z,5.40
2018-09-26T09:10:01.785Z,5.90
2018-09-26T09:12:29.072Z,4.60
2018-09-26T09:14:56.626Z,5.90
2018-09-26T09:17:24.112Z,6.57
2018-09-26T09:19:51.391Z,6.83
2018-09-26T09:22:18.711Z,5.00
2018-09-26T09:24:46.323Z,4.23
2018-09-26T09:27:13.658Z,6.63
2018-09-26T09:29:40.907Z,3.87
2018-09-26T09:32:08.214Z,4.30
2018-09-26T09:34:35.547Z,4.87
2018-09-26T09:37:02.896Z,4.37
2018-09-26T09:39:30.209Z,4.50
2018-09-26T09:41:57.548Z,5.43
2018-09-26T09:44:25.132Z,4.87
2018-09-26T09:46:52.438Z,4.87
2018-09-26T09:49:19.759Z,5.27
2018-09-26T09:51:47.106Z,3.77
2018-09-26T09:54:17.451Z,6.47
2018-09-26T09:56:44.770Z,4.53
2018-09-26T09:59:12.069Z,3.73
2018-09-26T10:01:39.373Z,6.00
2018-09-26T10:04:06.912Z,4.53
2018-09-26T10:06:34.276Z,5.87
2018-09-26T10:09:01.612Z,4.23
2018-09-26T10:11:29.034Z,9.03
2018-09-26T10:13:56.363Z,3.90
2018-09-26T10:16:23.713Z,5.17
2018-09-26T10:18:51.044Z,5.53
2018-09-26T10:21:18.392Z,5.00
2018-09-26T10:23:45.720Z,4.47
2018-09-26T10:26:13.028Z,4.50
2018-09-26T10:28:40.655Z,5.00
2018-09-26T10:31:08.063Z,3.97
2018-09-26T10:33:35.387Z,6.07
2018-09-26T10:36:02.725Z,5.27
2018-09-26T10:38:30.038Z,5.53
2018-09-26T10:40:57.393Z,4.80
2018-09-26T10:43:24.692Z,5.27
2018-09-26T10:45:52.007Z,3.60
2018-09-26T10:48:19.323Z,4.60
2018-09-26T10:50:46.705Z,5.23
2018-09-26T10:53:14.026Z,4.20
2018-09-26T10:55:41.364Z,5.40
2018-09-26T10:58:09.023Z,3.97
2018-09-26T11:00:36.312Z,3.97
2018-09-26T11:03:03.734Z,3.60
2018-09-26T11:05:31.095Z,3.23
2018-09-26T11:07:58.478Z,2.97
2018-09-26T11:10:25.866Z,5.33
2018-09-26T11:12:53.081Z,4.53
2018-09-26T11:15:20.677Z,3.67
2018-09-26T11:17:47.908Z,3.47
2018-09-26T11:20:15.240Z,3.40
2018-09-26T11:22:42.540Z,3.63
2018-09-26T11:25:09.845Z,3.73
2018-09-26T11:27:37.156Z,3.40
2018-09-26T11:30:04.499Z,5.07
2018-09-26T11:32:31.805Z,4.33
2018-09-26T11:34:59.116Z,5.93
2018-09-26T11:37:26.424Z,4.07
2018-09-26T11:39:53.724Z,2.50
2018-09-26T11:42:21.307Z,4.87
2018-09-26T11:44:48.799Z,3.23
2018-09-26T11:47:15.999Z,4.13
2018-09-26T11:49:43.674Z,4.90
2018-09-26T11:52:11.110Z,4.40
2018-09-26T11:54:38.412Z,3.23
2018-09-26T11:57:05.772Z,3.67
2018-09-26T11:59:33.121Z,4.33
2018-09-26T12:02:00.479Z,4.73
2018-09-26T12:04:27.748Z,4.50
2018-09-26T12:06:55.293Z,3.43
2018-09-26T12:09:22.604Z,3.73
2018-09-26T12:11:49.944Z,4.30
2018-09-26T12:14:17.261Z,4.07
2018-09-26T12:16:44.559Z,3.37
2018-09-26T12:19:11.939Z,4.17
2018-09-26T12:21:39.238Z,3.50
2018-09-26T12:24:06.644Z,4.27
2018-09-26T12:26:34.032Z,3.10
2018-09-26T12:29:01.443Z,4.33
2018-09-26T12:31:28.753Z,4.13
2018-09-26T12:33:56.131Z,3.97
2018-09-26T12:36:23.576Z,2.87
2018-09-26T12:38:50.884Z,3.93
2018-09-26T12:41:18.202Z,4.50
2018-09-26T12:43:45.526Z,4.77
2018-09-26T12:46:12.942Z,4.43
2018-09-26T12:48:40.240Z,3.70
2018-09-26T12:51:07.587Z,3.50
2018-09-26T12:53:35.668Z,3.43
2018-09-26T12:56:02.968Z,3.00
2018-09-26T12:58:30.319Z,3.80
2018-09-26T13:00:57.639Z,3.10
2018-09-26T13:03:25.003Z,3.53
2018-09-26T13:05:52.331Z,3.40
2018-09-26T13:08:19.733Z,4.77
2018-09-26T13:10:47.031Z,4.80
2018-09-26T13:13:14.307Z,6.03
2018-09-26T13:15:41.613Z,6.57
2018-09-26T13:18:08.961Z,4.33
2018-09-26T13:20:36.265Z,3.67
2018-09-26T13:23:03.583Z,4.00
2018-09-26T13:25:30.968Z,4.73
2018-09-26T13:27:58.219Z,3.07
2018-09-26T13:30:25.797Z,3.33
2018-09-26T13:32:53.070Z,2.40
2018-09-26T13:35:20.376Z,3.97
2018-09-26T13:37:47.673Z,3.43
2018-09-26T13:40:15.015Z,4.20
2018-09-26T13:42:42.381Z,6.47
2018-09-26T13:45:09.699Z,5.43
2018-09-26T13:47:36.994Z,3.80
2018-09-26T13:50:04.620Z,3.83
2018-09-26T13:52:31.911Z,4.70
2018-09-26T13:54:59.236Z,5.60
2018-09-26T13:57:26.540Z,3.93
2018-09-26T13:59:53.878Z,5.03
2018-09-26T14:02:21.262Z,4.73
2018-09-26T14:04:48.696Z,6.10
2018-09-26T14:07:15.999Z,5.83
2018-09-26T14:09:43.373Z,4.40
2018-09-26T14:12:10.728Z,6.47
2018-09-26T14:14:38.033Z,4.70
2018-09-26T14:17:05.428Z,3.83
2018-09-26T14:19:32.915Z,5.17
2018-09-26T14:22:00.229Z,3.50
2018-09-26T14:24:27.564Z,7.60
2018-09-26T14:26:54.901Z,4.27
2018-09-26T14:29:22.652Z,3.50
2018-09-26T14:31:49.921Z,4.30
2018-09-26T14:34:17.269Z,5.73
2018-09-26T14:36:44.588Z,3.33
2018-09-26T14:39:11.988Z,3.47
2018-09-26T14:41:39.253Z,3.73
2018-09-26T14:44:06.612Z,4.03
2018-09-26T14:46:33.990Z,3.83
2018-09-26T14:49:01.299Z,5.13
2018-09-26T14:51:28.666Z,5.67
2018-09-26T14:53:55.990Z,2.73
2018-09-26T14:56:23.394Z,3.67
2018-09-26T14:58:50.902Z,4.00
2018-09-26T15:01:18.199Z,3.90
2018-09-26T15:03:45.504Z,4.77
2018-09-26T15:06:13.072Z,3.87
2018-09-26T15:08:40.408Z,3.70
2018-09-26T15:11:07.892Z,4.43
2018-09-26T15:13:35.219Z,4.93
2018-09-26T15:16:02.555Z,9.27
2018-09-26T15:18:29.889Z,4.93
2018-09-26T15:20:57.190Z,7.40
2018-09-26T15:23:24.503Z,5.40
2018-09-26T15:25:51.881Z,4.90
2018-09-26T15:28:19.208Z,5.20
2018-09-26T15:30:46.499Z,4.90
2018-09-26T15:33:13.800Z,5.00
2018-09-26T15:35:41.189Z,4.40
2018-09-26T15:38:08.533Z,5.33
2018-09-26T15:40:35.852Z,5.67
2018-09-26T15:43:03.177Z,6.37
2018-09-26T15:45:30.457Z,4.43
2018-09-26T15:47:57.767Z,4.17
2018-09-26T15:50:25.168Z,5.43
2018-09-26T15:52:52.482Z,9.43
2018-09-26T15:55:19.902Z,4.60
2018-09-26T15:57:47.312Z,4.50
2018-09-26T16:00:14.761Z,4.40
2018-09-26T16:02:42.028Z,4.17
2018-09-26T16:05:09.966Z,3.97
2018-09-26T16:07:37.320Z,3.80
2018-09-26T16:10:04.760Z,4.03
2018-09-26T16:12:32.575Z,5.10
2018-09-26T16:14:59.939Z,8.30
2018-09-26T16:17:27.239Z,5.00
2018-09-26T16:19:54.600Z,4.00
2018-09-26T16:22:21.970Z,6.40
2018-09-26T16:24:49.287Z,5.07
2018-09-26T16:27:16.781Z,5.53
2018-09-26T16:29:44.177Z,3.97
2018-09-26T16:32:11.559Z,3.93
2018-09-26T16:34:39.020Z,4.37
2018-09-26T16:37:06.322Z,5.07
2018-09-26T16:39:33.805Z,4.43
2018-09-26T16:42:01.067Z,4.17
2018-09-26T16:44:28.366Z,5.00
2018-09-26T16:46:55.681Z,3.70
2018-09-26T16:49:23.004Z,4.20
2018-09-26T16:51:50.293Z,6.90
2018-09-26T16:54:17.710Z,4.33
2018-09-26T16:56:45.201Z,5.33
2018-09-26T16:59:12.502Z,8.20
2018-09-26T17:01:39.821Z,7.07
2018-09-26T17:04:07.156Z,4.53
2018-09-26T17:06:34.448Z,5.07
2018-09-26T17:09:01.897Z,6.07
2018-09-26T17:11:29.247Z,5.47
2018-09-26T17:13:56.660Z,5.67
2018-09-26T17:16:24.072Z,4.53
2018-09-26T17:18:51.320Z,8.37
2018-09-26T17:21:18.652Z,6.13
2018-09-26T17:23:46.132Z,6.63
2018-09-26T17:26:13.459Z,4.83
2018-09-26T17:28:40.864Z,5.87
2018-09-26T17:31:08.311Z,3.70
2018-09-26T17:33:35.624Z,5.07
2018-09-26T17:36:02.951Z,4.87
2018-09-26T17:38:30.491Z,3.73
2018-09-26T17:40:57.849Z,4.17
2018-09-26T17:43:26.381Z,6.37
2018-09-26T17:45:53.771Z,7.10
2018-09-26T17:48:21.115Z,6.07
2018-09-26T17:50:48.468Z,4.97
2018-09-26T17:53:15.802Z,5.57
2018-09-26T17:55:43.107Z,7.47
2018-09-26T17:58:10.439Z,8.37
2018-09-26T18:00:37.764Z,7.83
2018-09-26T18:03:05.132Z,7.93
2018-09-26T18:05:32.478Z,8.33
2018-09-26T18:07:59.829Z,7.20
2018-09-26T18:10:27.116Z,4.57
2018-09-26T18:12:54.469Z,8.07
2018-09-26T18:15:21.793Z,6.03
2018-09-26T18:17:49.127Z,6.27
2018-09-26T18:20:16.455Z,6.90
2018-09-26T18:22:43.864Z,8.47
2018-09-26T18:25:11.230Z,6.33
2018-09-26T18:27:38.670Z,4.50
2018-09-26T18:30:06.238Z,4.47
2018-09-26T18:32:33.566Z,6.43
2018-09-26T18:35:00.945Z,5.77
2018-09-26T18:37:28.273Z,3.23
2018-09-26T18:39:55.571Z,4.90
2018-09-26T18:42:22.916Z,5.40
2018-09-26T18:44:50.489Z,4.70
2018-09-26T18:47:17.779Z,4.77
2018-09-26T18:49:45.071Z,6.57
2018-09-26T18:52:12.439Z,9.27
2018-09-26T18:54:39.834Z,5.40
2018-09-26T18:57:07.237Z,6.27
2018-09-26T18:59:34.846Z,4.40
2018-09-26T19:02:02.152Z,5.10
2018-09-26T19:04:29.555Z,7.13
2018-09-26T19:06:56.901Z,5.03
2018-09-26T19:09:24.216Z,6.03
2018-09-26T19:11:51.515Z,4.50
2018-09-26T19:14:18.930Z,4.57
2018-09-26T19:16:46.268Z,7.43
2018-09-26T19:19:13.602Z,8.07
2018-09-26T19:21:40.960Z,5.23
2018-09-26T19:24:08.273Z,8.13
2018-09-26T19:26:35.773Z,7.53
2018-09-26T19:29:03.129Z,7.30
2018-09-26T19:31:30.484Z,5.10
2018-09-26T19:33:58.006Z,5.53
2018-09-26T19:36:25.445Z,7.80
2018-09-26T19:38:52.763Z,14.53
2018-09-26T19:41:20.208Z,8.40
2018-09-26T19:43:47.550Z,6.77
2018-09-26T19:46:15.022Z,5.60
2018-09-26T19:48:42.329Z,6.00
2018-09-26T19:51:09.731Z,5.87
2018-09-26T19:53:37.364Z,5.00
2018-09-26T19:56:04.759Z,5.67
2018-09-26T19:58:32.067Z,5.93
2018-09-26T20:00:59.413Z,6.17
2018-09-26T20:03:26.956Z,7.27
2018-09-26T20:05:54.283Z,7.30
2018-09-26T20:08:21.794Z,4.77
2018-09-26T20:10:49.136Z,7.33
2018-09-26T20:13:16.485Z,6.27
2018-09-26T20:15:43.819Z,6.23
2018-09-26T20:18:11.323Z,4.63
2018-09-26T20:20:38.691Z,5.77
2018-09-26T20:23:06.248Z,7.23
2018-09-26T20:25:33.658Z,8.27
2018-09-26T20:28:00.972Z,6.73
2018-09-26T20:30:28.331Z,6.13
2018-09-26T20:32:55.652Z,5.47
2018-09-26T20:35:22.963Z,7.27
2018-09-26T20:37:50.415Z,8.17
2018-09-26T20:40:17.699Z,7.87
2018-09-26T20:42:44.988Z,6.50
2018-09-26T20:45:12.280Z,7.20
2018-09-26T20:47:39.608Z,8.33
2018-09-26T20:50:07.097Z,6.23
2018-09-26T20:52:34.411Z,6.47
2018-09-26T20:55:01.731Z,5.00
2018-09-26T20:57:29.055Z,5.30
2018-09-26T20:59:56.384Z,6.43
2018-09-26T21:02:23.706Z,7.43
2018-09-26T21:04:51.036Z,6.50
2018-09-26T21:07:18.352Z,8.47
2018-09-26T21:09:45.649Z,6.57
2018-09-26T21:12:13.184Z,7.23
2018-09-26T21:14:40.506Z,7.77
2018-09-26T21:17:07.811Z,6.07
2018-09-26T21:19:35.154Z,5.73
2018-09-26T21:22:02.477Z,6.37
2018-09-26T21:24:29.829Z,7.83
2018-09-26T21:26:57.143Z,7.23
2018-09-26T21:29:24.500Z,6.10
2018-09-26T21:31:52.044Z,6.03
2018-09-26T21:34:19.351Z,7.03
2018-09-26T21:36:46.653Z,6.07
2018-09-26T21:39:13.990Z,7.00
2018-09-26T21:41:41.318Z,7.00
2018-09-26T21:44:08.619Z,6.57
2018-09-26T21:46:36.664Z,5.70
2018-09-26T21:49:04.035Z,6.03
2018-09-26T21:51:31.340Z,6.00
2018-09-26T21:53:58.676Z,6.17
2018-09-26T21:56:26.000Z,6.33
2018-09-26T21:58:53.283Z,8.03
2018-09-26T22:01:20.667Z,8.30
2018-09-26T22:03:48.018Z,10.77
2018-09-26T22:06:16.044Z,6.03
2018-09-26T22:08:43.372Z,7.83
2018-09-26T22:11:10.687Z,7.03
2018-09-26T22:13:38.044Z,9.07
2018-09-26T22:16:05.410Z,6.53
2018-09-26T22:18:32.713Z,6.67
2018-09-26T22:21:00.057Z,7.03
2018-09-26T22:23:27.450Z,7.03
2018-09-26T22:25:54.738Z,5.80
2018-09-26T22:28:22.060Z,6.13
2018-09-26T22:30:49.567Z,7.57
2018-09-26T22:33:17.040Z,7.17
2018-09-26T22:35:44.332Z,6.07
2018-09-26T22:38:11.709Z,8.60
2018-09-26T22:40:39.027Z,8.13
2018-09-26T22:43:06.469Z,15.43
2018-09-26T22:45:33.796Z,18.17
2018-09-26T22:48:01.104Z,23.83
2018-09-26T22:50:28.411Z,15.17
2018-09-26T22:52:55.725Z,10.07
2018-09-26T22:55:23.067Z,8.87
2018-09-26T22:57:50.379Z,10.37
2018-09-26T23:00:17.719Z,9.70
2018-09-26T23:02:45.066Z,6.60
2018-09-26T23:05:12.380Z,7.33
2018-09-26T23:07:39.703Z,5.70
2018-09-26T23:10:07.051Z,6.77
2018-09-26T23:12:34.323Z,6.33
2018-09-26T23:15:01.644Z,6.53
2018-09-26T23:17:28.973Z,7.43
2018-09-26T23:19:56.289Z,6.00
2018-09-26T23:22:23.595Z,5.73
2018-09-26T23:24:50.898Z,4.70
2018-09-26T23:27:18.196Z,8.63
2018-09-26T23:29:45.525Z,6.27
2018-09-26T23:32:12.884Z,7.97
2018-09-26T23:34:40.191Z,7.83
2018-09-26T23:37:07.497Z,8.20
2018-09-26T23:39:34.823Z,7.73
2018-09-26T23:42:02.146Z,8.47
2018-09-26T23:44:30.287Z,8.00
2018-09-26T23:46:57.975Z,6.73
2018-09-26T23:49:25.288Z,5.53
2018-09-26T23:51:52.604Z,6.37
2018-09-26T23:54:20.386Z,6.77
2018-09-26T23:56:47.688Z,5.27
2018-09-26T23:59:15.256Z,6.87
